Time;durP1;ratioP1;P1;durP2;ratioP2;P2;SDS_P1;SDS_P2;PMS_P1;PMS_P2;Temp;Humidity;BMP_temperature;BMP_pressure;BME280_temperature;BME280_humidity;BME280_pressure;Samples;Min_cycle;Max_cycle;Signal;HPM_P1;HPM_P2
2022/12/14 00:00:31;;;;;;;58.97;28.90;;;-6.40;99.90;;;;;;6100755;23;20119;-86
2022/12/14 00:43:28;;;;;;;58.67;27.17;;;-6.80;99.90;;;;;;6124072;23;20056;-86
2022/12/14 00:46:10;;;;;;;56.37;27.20;;;-6.80;99.90;;;;;;6121951;23;20080;-86
2022/12/14 00:48:35;;;;;;;60.13;26.80;;;-6.30;99.90;;;;;;6099870;23;20018;-86
2022/12/14 00:51:13;;;;;;;61.50;28.80;;;-6.90;99.90;;;;;;6099263;23;20105;-86
2022/12/14 00:53:40;;;;;;;60.10;28.63;;;-5.20;99.90;;;;;;6097614;23;20022;-86
2022/12/14 00:56:12;;;;;;;63.00;28.43;;;-7.00;99.90;;;;;;6125538;23;20014;-86
2022/12/14 00:58:38;;;;;;;57.07;28.27;;;-7.30;99.90;;;;;;6125860;23;20021;-86
2022/12/14 01:01:06;;;;;;;62.83;28.57;;;-7.10;99.90;;;;;;6099552;23;20014;-86
2022/12/14 01:03:39;;;;;;;58.60;29.13;;;-7.20;99.90;;;;;;6099865;23;20022;-86
2022/12/14 01:06:11;;;;;;;56.40;27.40;;;-6.60;99.90;;;;;;6104936;23;20368;-87
2022/12/14 01:08:37;;;;;;;58.20;28.23;;;-7.00;99.90;;;;;;6099573;23;20096;-86
2022/12/14 01:11:04;;;;;;;53.80;26.13;;;-7.20;99.90;;;;;;6101302;23;20022;-86
2022/12/14 01:13:54;;;;;;;60.37;28.10;;;-7.10;99.90;;;;;;6099160;23;20018;-86
2022/12/14 01:16:32;;;;;;;56.73;27.10;;;-7.40;99.90;;;;;;6100047;23;20017;-86
2022/12/14 01:18:59;;;;;;;57.60;27.10;;;-7.50;99.90;;;;;;6101201;23;20018;-86
2022/12/14 01:21:37;;;;;;;53.83;24.30;;;-7.50;99.90;;;;;;6086126;23;20018;-86
2022/12/14 01:24:15;;;;;;;55.47;26.37;;;-7.60;99.90;;;;;;6127518;23;20024;-86
2022/12/14 01:26:40;;;;;;;58.37;27.00;;;-7.60;99.90;;;;;;6101014;23;20435;-86
2022/12/14 01:29:19;;;;;;;54.77;26.50;;;-7.40;99.90;;;;;;6100931;23;20022;-86
2022/12/14 01:31:48;;;;;;;61.97;27.50;;;-7.50;99.90;;;;;;6100833;23;20423;-86
2022/12/14 01:34:20;;;;;;;55.27;27.60;;;-7.50;99.90;;;;;;6101016;23;20057;-86
2022/12/14 01:36:51;;;;;;;57.83;25.87;;;-7.70;99.90;;;;;;6129044;23;20010;-86
2022/12/14 01:39:18;;;;;;;56.73;26.27;;;-7.80;99.90;;;;;;6121177;23;20041;-86
2022/12/14 01:41:53;;;;;;;55.57;25.63;;;-7.70;99.90;;;;;;6127867;23;19998;-86
2022/12/14 01:44:18;;;;;;;56.47;25.37;;;-7.60;99.90;;;;;;6131378;23;20022;-86
2022/12/14 01:46:59;;;;;;;53.47;26.37;;;-7.60;99.90;;;;;;6105703;23;20165;-87
2022/12/14 01:49:47;;;;;;;61.60;26.60;;;-7.60;99.90;;;;;;6100328;23;20479;-86
2022/12/14 01:52:26;;;;;;;60.93;28.20;;;-7.60;99.90;;;;;;6114729;23;20025;-86
2022/12/14 01:55:01;;;;;;;58.67;27.80;;;-7.60;99.90;;;;;;6101031;23;20018;-86
2022/12/14 01:57:40;;;;;;;57.97;26.60;;;-7.60;99.90;;;;;;6100337;23;20021;-86
2022/12/14 02:00:16;;;;;;;52.93;26.47;;;-7.60;99.90;;;;;;6100715;23;20025;-86
2022/12/14 02:03:09;;;;;;;54.97;25.43;;;-7.70;99.90;;;;;;6127139;23;20096;-86
2022/12/14 02:05:39;;;;;;;56.83;25.43;;;-7.70;99.90;;;;;;6126554;23;20454;-86
2022/12/14 02:08:16;;;;;;;58.33;26.63;;;-7.80;99.90;;;;;;6126330;23;20049;-86
2022/12/14 02:10:45;;;;;;;58.27;26.20;;;-7.90;99.90;;;;;;6100773;23;20021;-86
2022/12/14 02:13:26;;;;;;;56.67;25.17;;;-7.80;99.90;;;;;;6100659;23;20022;-86
2022/12/14 02:15:52;;;;;;;58.27;25.37;;;-7.80;99.90;;;;;;6106846;23;20386;-86
2022/12/14 02:18:31;;;;;;;58.10;25.10;;;-6.80;99.90;;;;;;6119712;23;20018;-86
2022/12/14 02:21:50;;;;;;;53.10;24.73;;;-7.90;99.90;;;;;;6127549;23;20339;-86
2022/12/14 02:24:41;;;;;;;54.90;24.90;;;-6.90;99.90;;;;;;6051433;23;20093;-86
2022/12/14 02:27:48;;;;;;;52.30;24.67;;;-7.80;99.90;;;;;;6097803;23;20027;-86
2022/12/14 02:30:37;;;;;;;51.80;23.90;;;-6.20;99.90;;;;;;6093077;23;20026;-86
2022/12/14 02:33:21;;;;;;;52.40;23.73;;;-8.10;99.90;;;;;;6070425;23;20025;-86
2022/12/14 02:36:06;;;;;;;57.00;23.90;;;-8.00;99.90;;;;;;6097392;23;20014;-86
2022/12/14 02:39:20;;;;;;;56.83;24.33;;;-7.60;99.90;;;;;;6071113;23;20022;-86
2022/12/14 02:42:20;;;;;;;51.67;23.50;;;-7.80;99.90;;;;;;6072183;23;20037;-86
2022/12/14 02:45:08;;;;;;;56.93;24.27;;;-8.80;99.90;;;;;;6071841;23;20367;-86
2022/12/14 02:47:53;;;;;;;56.20;25.53;;;-8.50;99.90;;;;;;6097202;23;20022;-86
2022/12/14 02:50:42;;;;;;;56.33;25.73;;;-8.20;99.90;;;;;;6076498;23;20015;-86
2022/12/14 02:53:37;;;;;;;55.17;24.03;;;-8.20;99.90;;;;;;6096045;23;20023;-86
2022/12/14 02:56:26;;;;;;;53.33;23.50;;;-8.60;99.90;;;;;;6097189;23;20090;-85
2022/12/14 02:59:02;;;;;;;56.27;24.70;;;-8.40;99.90;;;;;;6096869;23;20462;-86
2022/12/14 03:01:28;;;;;;;52.60;25.60;;;-8.20;99.90;;;;;;6070106;23;20018;-86
2022/12/14 03:04:02;;;;;;;49.23;22.67;;;-8.50;99.90;;;;;;6070631;23;20455;-86
2022/12/14 03:06:28;;;;;;;55.13;23.80;;;-9.00;99.90;;;;;;6069343;23;20443;-86
2022/12/14 03:09:07;;;;;;;52.60;24.10;;;-8.60;99.90;;;;;;6097112;23;20094;-86
2022/12/14 03:11:56;;;;;;;51.73;23.97;;;-8.40;99.90;;;;;;6096785;23;20060;-86
2022/12/14 03:14:31;;;;;;;55.83;24.63;;;-8.50;99.90;;;;;;6070638;23;20089;-86
2022/12/14 03:17:06;;;;;;;52.70;23.70;;;-8.40;99.90;;;;;;6097010;23;20076;-86
2022/12/14 03:19:41;;;;;;;52.53;22.37;;;-8.40;99.90;;;;;;6071703;23;20014;-86
2022/12/14 03:22:12;;;;;;;52.80;22.57;;;-8.40;99.90;;;;;;6070983;23;20006;-86
2022/12/14 03:24:42;;;;;;;49.13;22.27;;;-8.40;99.90;;;;;;6078256;23;20579;-87
2022/12/14 03:27:59;;;;;;;62.03;25.03;;;-8.40;99.90;;;;;;6071909;23;20162;-85
2022/12/14 03:30:25;;;;;;;54.93;23.77;;;-7.90;99.90;;;;;;6072043;23;20078;-86
2022/12/14 03:33:11;;;;;;;50.17;22.37;;;-7.10;99.90;;;;;;6123088;23;20018;-85
2022/12/14 03:35:44;;;;;;;61.17;25.07;;;-8.20;99.90;;;;;;6096420;23;20085;-85
2022/12/14 03:38:36;;;;;;;53.38;22.48;;;-8.40;99.90;;;;;;6120664;23;20022;-86
2022/12/14 03:41:29;;;;;;;51.40;22.17;;;-8.40;99.90;;;;;;6126267;23;20057;-85
2022/12/14 03:44:12;;;;;;;53.70;23.67;;;-8.00;99.90;;;;;;6126166;23;20025;-85
2022/12/14 03:47:14;;;;;;;48.87;21.53;;;-8.60;99.90;;;;;;6100037;23;20097;-85
2022/12/14 03:50:11;;;;;;;46.83;20.93;;;-8.50;99.90;;;;;;6099699;23;20411;-85
2022/12/14 03:53:13;;;;;;;55.37;24.50;;;-8.50;99.90;;;;;;6128501;23;20057;-85
2022/12/14 03:56:20;;;;;;;51.10;22.27;;;-7.90;99.90;;;;;;6107983;23;20068;-85
2022/12/14 03:59:00;;;;;;;52.63;22.37;;;-8.90;99.90;;;;;;6065207;23;20018;-85
2022/12/14 04:01:49;;;;;;;54.60;21.67;;;-8.60;99.90;;;;;;6125997;23;20362;-85
2022/12/14 04:04:41;;;;;;;50.93;22.53;;;-8.70;99.90;;;;;;6098854;23;20104;-85
2022/12/14 04:07:15;;;;;;;53.07;21.47;;;-8.70;99.90;;;;;;6106152;23;20439;-86
2022/12/14 04:09:57;;;;;;;55.17;22.67;;;-8.70;99.90;;;;;;6099852;23;20014;-84
2022/12/14 04:21:27;;;;;;;51.30;22.40;;;-8.80;99.90;;;;;;6125519;23;20022;-85
2022/12/14 04:26:58;;;;;;;55.17;23.17;;;-8.90;99.90;;;;;;6126462;23;20018;-86
2022/12/14 04:32:33;;;;;;;53.07;23.33;;;-8.90;99.90;;;;;;6096046;23;20022;-86
2022/12/14 04:35:36;;;;;;;54.57;22.27;;;-8.90;99.90;;;;;;6101648;23;20022;-85
2022/12/14 04:38:33;;;;;;;52.17;21.93;;;-9.30;99.90;;;;;;6070931;23;20321;-86
2022/12/14 04:41:23;;;;;;;52.57;21.93;;;-8.90;99.90;;;;;;6097338;23;20057;-85
2022/12/14 04:44:35;;;;;;;53.13;21.73;;;-8.70;99.90;;;;;;6051890;23;20050;-85
2022/12/14 04:47:04;;;;;;;49.33;21.60;;;-8.90;99.90;;;;;;6070505;23;20014;-85
2022/12/14 04:49:53;;;;;;;56.70;21.80;;;-8.90;99.90;;;;;;6070996;23;20460;-85
2022/12/14 04:52:29;;;;;;;55.00;20.60;;;-8.90;99.90;;;;;;6097399;23;20098;-85
2022/12/14 04:55:07;;;;;;;52.77;21.93;;;-8.90;99.90;;;;;;6098971;23;20025;-85
2022/12/14 04:57:40;;;;;;;56.43;22.90;;;-8.80;99.90;;;;;;6072524;23;20018;-85
2022/12/14 05:00:12;;;;;;;55.47;22.50;;;-7.10;99.90;;;;;;6072401;23;20318;-86
2022/12/14 05:02:44;;;;;;;47.87;21.57;;;-8.80;99.90;;;;;;6097849;23;20255;-86
2022/12/14 05:05:32;;;;;;;54.47;22.03;;;-8.80;99.90;;;;;;6096026;23;20025;-86
2022/12/14 05:08:33;;;;;;;55.33;21.57;;;-8.80;99.90;;;;;;6100764;23;20025;-85
2022/12/14 05:11:08;;;;;;;54.13;21.73;;;-8.80;99.90;;;;;;6047223;23;20018;-85
2022/12/14 05:13:44;;;;;;;53.47;21.20;;;-8.80;99.90;;;;;;6072376;23;20388;-86
2022/12/14 05:16:14;;;;;;;57.10;22.03;;;-8.70;99.90;;;;;;6072031;23;20062;-86
2022/12/14 05:18:43;;;;;;;50.23;21.20;;;-8.50;99.90;;;;;;6087945;23;20022;-85
2022/12/14 05:21:45;;;;;;;55.70;22.63;;;-8.80;99.90;;;;;;6071785;23;20014;-86
2022/12/14 05:24:00;;;;;;;55.23;22.83;;;-8.70;99.90;;;;;;6072192;23;20452;-86
2022/12/14 05:26:43;;;;;;;53.50;22.00;;;-8.80;99.90;;;;;;6097272;23;20451;-86
2022/12/14 05:29:31;;;;;;;51.08;22.42;;;-8.80;99.90;;;;;;6071686;23;20014;-86
2022/12/14 05:32:11;;;;;;;55.00;22.87;;;-9.00;99.90;;;;;;6097039;23;20022;-86
2022/12/14 05:34:43;;;;;;;56.53;21.30;;;-8.90;99.90;;;;;;6095941;23;20076;-85
2022/12/14 05:37:18;;;;;;;57.43;22.97;;;-8.80;99.90;;;;;;6095803;23;20018;-86
2022/12/14 05:39:43;;;;;;;50.83;21.27;;;-8.50;99.90;;;;;;6099466;23;20089;-86
2022/12/14 05:42:15;;;;;;;51.60;21.57;;;-9.20;99.90;;;;;;6097216;23;20053;-86
2022/12/14 05:44:41;;;;;;;45.10;20.87;;;-9.00;99.90;;;;;;6101630;23;20014;-87
2022/12/14 05:47:07;;;;;;;53.17;20.37;;;-8.70;99.90;;;;;;6094326;23;20045;-86
2022/12/14 05:49:39;;;;;;;53.43;22.83;;;-8.90;99.90;;;;;;6095548;23;20073;-86
2022/12/14 05:52:05;;;;;;;47.87;19.83;;;-8.80;99.90;;;;;;6098334;23;20403;-85
2022/12/14 05:54:31;;;;;;;48.93;20.50;;;-8.80;99.90;;;;;;6098666;23;20026;-85
2022/12/14 05:56:56;;;;;;;48.30;20.97;;;-9.00;99.90;;;;;;6095983;23;20025;-86
2022/12/14 05:59:22;;;;;;;45.73;19.83;;;-8.60;99.90;;;;;;6097782;23;20454;-85
2022/12/14 06:02:00;;;;;;;50.70;20.90;;;-7.40;99.90;;;;;;6098285;23;20018;-85
2022/12/14 06:04:41;;;;;;;47.13;21.07;;;-9.20;99.90;;;;;;6098028;23;20022;-85
2022/12/14 06:07:15;;;;;;;50.67;20.30;;;-8.80;99.90;;;;;;6072315;23;20445;-85
2022/12/14 06:09:55;;;;;;;54.70;20.67;;;-9.10;99.90;;;;;;6071763;23;20049;-85
2022/12/14 06:12:30;;;;;;;50.10;22.23;;;-9.00;99.90;;;;;;6097535;23;20019;-84
2022/12/14 06:15:31;;;;;;;49.93;20.40;;;-7.50;99.90;;;;;;6097562;23;20111;-85
2022/12/14 06:18:11;;;;;;;49.97;21.00;;;-9.50;99.90;;;;;;6051224;23;20331;-85
2022/12/14 06:20:46;;;;;;;50.90;20.87;;;-8.80;99.90;;;;;;6097739;23;20037;-84
2022/12/14 06:23:12;;;;;;;51.53;21.53;;;-8.70;99.90;;;;;;6095872;23;20089;-85
2022/12/14 06:25:51;;;;;;;52.63;22.83;;;-9.00;99.90;;;;;;6095932;23;20414;-85
2022/12/14 06:28:16;;;;;;;47.73;21.50;;;-9.20;99.90;;;;;;6071808;23;20022;-86
2022/12/14 06:31:01;;;;;;;49.20;20.13;;;-9.00;99.90;;;;;;6107505;23;20089;-85
2022/12/14 06:34:01;;;;;;;52.87;20.70;;;-8.40;99.90;;;;;;6091577;23;20445;-85
2022/12/14 06:36:32;;;;;;;51.30;20.93;;;-9.30;99.90;;;;;;6095711;23;20022;-85
2022/12/14 06:39:05;;;;;;;51.80;22.03;;;-8.90;99.90;;;;;;6095825;23;20022;-85
2022/12/14 06:41:37;;;;;;;47.97;20.83;;;-8.70;99.90;;;;;;6098127;23;20082;-86
2022/12/14 06:44:13;;;;;;;51.23;21.57;;;-8.90;99.90;;;;;;6097809;23;20021;-85
2022/12/14 06:46:50;;;;;;;50.83;22.97;;;-8.90;99.90;;;;;;6095461;23;20463;-85
2022/12/14 06:49:19;;;;;;;55.13;24.20;;;-9.00;99.90;;;;;;6095142;23;20014;-85
2022/12/14 06:51:57;;;;;;;50.00;22.60;;;-8.70;99.90;;;;;;6106568;23;20022;-85
2022/12/14 06:54:22;;;;;;;55.27;22.47;;;-9.20;99.90;;;;;;6106312;23;20018;-86
2022/12/14 06:56:50;;;;;;;50.13;22.13;;;-9.00;99.90;;;;;;6121542;23;20014;-85
2022/12/14 06:59:29;;;;;;;47.87;20.67;;;-9.10;99.90;;;;;;6087773;23;20102;-87
2022/12/14 07:01:54;;;;;;;55.13;23.17;;;-6.80;99.90;;;;;;6100304;23;20049;-85
2022/12/14 07:04:26;;;;;;;50.77;22.07;;;-10.50;99.90;;;;;;6099615;23;20343;-84
2022/12/14 07:07:04;;;;;;;49.73;21.90;;;-8.50;99.90;;;;;;6096944;23;20103;-83
2022/12/14 07:09:37;;;;;;;49.83;21.73;;;-8.90;99.90;;;;;;6095163;23;20105;-84
2022/12/14 07:12:03;;;;;;;56.70;23.17;;;-9.00;99.90;;;;;;6096526;23;20085;-83
2022/12/14 07:14:28;;;;;;;57.70;23.93;;;-7.00;99.90;;;;;;6094691;23;20403;-84
2022/12/14 07:16:54;;;;;;;52.23;23.43;;;-8.80;99.90;;;;;;6097185;23;20015;-84
2022/12/14 07:19:20;;;;;;;47.10;20.37;;;-8.70;99.90;;;;;;6097244;23;20018;-84
2022/12/14 07:21:45;;;;;;;48.73;21.23;;;-8.80;99.90;;;;;;6094878;23;20097;-84
2022/12/14 07:24:11;;;;;;;54.33;21.50;;;-8.70;99.90;;;;;;6094705;23;20447;-84
2022/12/14 07:26:37;;;;;;;51.43;22.43;;;-8.70;99.90;;;;;;6097732;23;20458;-86
2022/12/14 07:29:03;;;;;;;47.23;22.13;;;-8.70;99.90;;;;;;6100210;23;20029;-87
2022/12/14 07:31:28;;;;;;;48.37;20.97;;;-8.70;99.90;;;;;;6096529;23;20416;-85
2022/12/14 07:33:57;;;;;;;50.10;22.57;;;-8.70;99.90;;;;;;6094592;23;20093;-83
2022/12/14 07:36:24;;;;;;;49.23;19.80;;;-8.70;99.90;;;;;;6089258;23;20014;-82
2022/12/14 07:38:50;;;;;;;49.87;21.00;;;-8.70;99.90;;;;;;6096803;23;20049;-83
2022/12/14 07:41:25;;;;;;;49.80;19.87;;;-8.70;99.90;;;;;;6095944;23;20017;-82
2022/12/14 07:44:10;;;;;;;45.73;19.73;;;-8.60;99.90;;;;;;6097052;23;20097;-83
2022/12/14 07:46:52;;;;;;;50.90;21.00;;;-8.20;99.90;;;;;;6093250;23;20113;-83
2022/12/14 07:49:17;;;;;;;43.13;18.60;;;-8.80;99.90;;;;;;6093357;23;20022;-83
2022/12/14 07:51:44;;;;;;;47.20;19.87;;;-8.60;99.90;;;;;;6094575;23;20015;-82
2022/12/14 07:54:11;;;;;;;52.93;21.37;;;-8.60;99.90;;;;;;6094811;23;20018;-84
2022/12/14 07:56:42;;;;;;;50.43;21.60;;;-8.70;99.90;;;;;;6093321;23;20023;-82
2022/12/14 07:59:16;;;;;;;48.37;21.00;;;-8.50;99.90;;;;;;6095166;23;20022;-84
2022/12/14 08:01:42;;;;;;;48.60;20.73;;;-8.60;99.90;;;;;;6101680;23;20100;-83
2022/12/14 08:04:14;;;;;;;49.23;21.47;;;-8.70;99.90;;;;;;6099823;23;20447;-84
2022/12/14 08:06:40;;;;;;;46.60;20.10;;;-8.70;99.90;;;;;;6094080;23;20519;-85
2022/12/14 08:09:08;;;;;;;49.23;20.60;;;-8.60;99.90;;;;;;6094677;23;20786;-84
2022/12/14 08:11:35;;;;;;;46.43;20.43;;;-8.70;99.90;;;;;;6092619;23;20017;-84
2022/12/14 08:14:07;;;;;;;45.00;19.87;;;-8.70;99.90;;;;;;6093933;23;20061;-84
2022/12/14 08:16:37;;;;;;;51.50;20.87;;;-9.00;99.90;;;;;;6095441;23;20015;-84
2022/12/14 08:19:06;;;;;;;;;;;-8.70;99.90;;;;;;6095087;23;20018;-84
2022/12/14 08:21:32;;;;;;;47.17;19.70;;;-8.80;99.90;;;;;;6094818;23;19996;-82
2022/12/14 08:24:14;;;;;;;43.27;19.30;;;-8.80;99.90;;;;;;6094392;23;20014;-82
2022/12/14 08:26:48;;;;;;;47.90;21.03;;;-8.90;99.90;;;;;;6094289;23;20343;-83
2022/12/14 08:29:21;;;;;;;42.40;19.57;;;-9.00;99.90;;;;;;6095587;23;20466;-84
2022/12/14 08:32:05;;;;;;;50.05;20.42;;;-8.90;99.90;;;;;;6096282;23;20347;-84
2022/12/14 08:34:31;;;;;;;47.20;19.23;;;-8.90;99.90;;;;;;6087318;23;20447;-84
2022/12/14 08:37:09;;;;;;;49.83;20.63;;;-8.80;99.90;;;;;;6102333;23;20003;-85
2022/12/14 08:39:35;;;;;;;44.63;19.50;;;-8.80;99.90;;;;;;6097304;23;20018;-82
2022/12/14 08:45:11;;;;;;;47.03;20.03;;;-8.00;99.90;;;;;;6072014;23;20023;-83
2022/12/14 08:47:43;;;;;;;46.77;20.40;;;-8.80;99.90;;;;;;6072418;23;20033;-83
2022/12/14 08:50:14;;;;;;;49.50;19.77;;;-8.20;99.90;;;;;;6072975;23;20044;-83
2022/12/14 08:52:52;;;;;;;44.40;18.93;;;-8.10;99.90;;;;;;6096063;23;20022;-83
2022/12/14 08:55:20;;;;;;;48.77;20.87;;;-8.30;99.90;;;;;;6072496;23;20018;-83
2022/12/14 08:57:45;;;;;;;49.60;20.60;;;-8.20;99.90;;;;;;6072413;23;20022;-82
2022/12/14 09:00:12;;;;;;;47.80;20.20;;;-8.00;99.90;;;;;;6097082;23;20052;-83
2022/12/14 09:02:37;;;;;;;48.73;19.57;;;-7.90;99.90;;;;;;6072083;23;20065;-83
2022/12/14 09:05:04;;;;;;;54.53;20.87;;;-7.80;99.90;;;;;;6098038;23;20335;-83
2022/12/14 09:07:30;;;;;;;46.80;19.57;;;-7.70;99.90;;;;;;6098195;23;20034;-83
2022/12/14 09:09:56;;;;;;;45.63;19.80;;;-7.60;99.90;;;;;;6096726;23;20015;-83
2022/12/14 09:12:23;;;;;;;51.90;19.77;;;-7.60;99.90;;;;;;6107064;23;20037;-83
2022/12/14 09:14:50;;;;;;;45.93;19.27;;;-7.50;99.90;;;;;;6099422;23;20531;-83
2022/12/14 09:17:28;;;;;;;46.80;19.40;;;-7.50;99.90;;;;;;6070370;23;20025;-83
2022/12/14 09:20:00;;;;;;;47.77;20.43;;;-5.80;99.90;;;;;;6096826;23;20027;-83
2022/12/14 09:22:32;;;;;;;46.07;20.90;;;-7.40;99.90;;;;;;6095975;23;20102;-82
2022/12/14 09:24:57;;;;;;;52.50;20.73;;;-7.30;99.90;;;;;;6098098;23;20014;-83
2022/12/14 09:27:23;;;;;;;47.53;19.60;;;-7.20;99.90;;;;;;6095470;23;20327;-82
2022/12/14 09:29:49;;;;;;;45.33;19.10;;;-7.20;99.90;;;;;;6097971;23;20018;-83
2022/12/14 09:32:15;;;;;;;45.43;20.00;;;-7.10;99.90;;;;;;6097386;23;20014;-81
2022/12/14 09:34:59;;;;;;;48.20;19.73;;;-5.50;99.90;;;;;;6090739;23;20033;-83
2022/12/14 09:37:43;;;;;;;41.33;18.63;;;-7.10;99.90;;;;;;6126007;23;20018;-85
2022/12/14 09:40:30;;;;;;;42.50;17.80;;;-7.00;99.90;;;;;;6126538;23;20017;-83
2022/12/14 09:43:04;;;;;;;47.13;19.67;;;-6.90;99.90;;;;;;6127432;23;20152;-83
2022/12/14 09:45:51;;;;;;;41.27;18.70;;;-6.70;99.90;;;;;;6101233;23;20014;-83
2022/12/14 09:48:26;;;;;;;41.60;18.70;;;-6.70;99.90;;;;;;6104497;23;20152;-83
2022/12/14 09:50:55;;;;;;;39.93;19.07;;;-6.70;99.90;;;;;;6101253;23;20410;-83
2022/12/14 09:53:21;;;;;;;45.97;19.33;;;-6.50;99.90;;;;;;6111455;23;20002;-82
2022/12/14 09:55:54;;;;;;;43.50;19.10;;;-6.40;99.90;;;;;;6126694;23;20420;-83
2022/12/14 09:58:30;;;;;;;42.17;18.47;;;-6.40;99.90;;;;;;6127239;23;20029;-82
2022/12/14 10:01:21;;;;;;;42.23;20.07;;;-6.30;99.90;;;;;;6126845;23;20077;-82
2022/12/14 10:04:11;;;;;;;41.50;18.73;;;-6.20;99.90;;;;;;6094914;23;20454;-83
2022/12/14 10:06:45;;;;;;;44.93;20.30;;;-6.10;99.90;;;;;;6100588;23;20018;-83
2022/12/14 10:09:21;;;;;;;41.53;18.30;;;-6.00;99.90;;;;;;6099908;23;20387;-83
2022/12/14 10:11:49;;;;;;;39.87;18.07;;;-6.00;99.90;;;;;;6127245;23;20069;-83
2022/12/14 10:14:34;;;;;;;47.57;18.77;;;-6.00;99.90;;;;;;6100394;23;20054;-83
2022/12/14 10:17:20;;;;;;;43.83;18.37;;;-5.90;99.90;;;;;;6126435;23;20109;-83
2022/12/14 10:19:59;;;;;;;40.73;18.43;;;-5.80;99.90;;;;;;6100519;23;20014;-83
2022/12/14 10:22:38;;;;;;;40.93;18.50;;;-5.70;99.90;;;;;;6120150;23;20018;-83
2022/12/14 10:25:17;;;;;;;41.57;18.63;;;-5.60;99.90;;;;;;6101421;23;20036;-83
2022/12/14 10:27:57;;;;;;;40.87;19.57;;;-3.70;99.90;;;;;;6101144;23;20469;-83
2022/12/14 10:30:23;;;;;;;38.63;19.03;;;-5.30;99.90;;;;;;6100048;23;20010;-83
2022/12/14 10:33:13;;;;;;;41.77;19.57;;;-5.20;99.90;;;;;;6100289;23;20081;-83
2022/12/14 10:35:54;;;;;;;43.20;19.77;;;-5.10;99.90;;;;;;6100976;23;20077;-83
2022/12/14 10:38:25;;;;;;;40.27;19.70;;;-4.90;99.90;;;;;;6125748;23;20028;-83
2022/12/14 10:40:55;;;;;;;39.37;18.37;;;-4.70;99.90;;;;;;6100419;23;20070;-83
2022/12/14 10:43:54;;;;;;;37.00;19.00;;;-4.60;99.90;;;;;;6126759;23;20089;-83
2022/12/14 10:46:42;;;;;;;40.30;18.70;;;-4.40;99.90;;;;;;6099181;23;20022;-82
2022/12/14 10:49:20;;;;;;;34.73;17.13;;;-4.30;99.90;;;;;;6104331;23;20020;-83
2022/12/14 10:51:51;;;;;;;38.17;18.37;;;-4.10;99.90;;;;;;6126388;23;20016;-83
2022/12/14 10:54:23;;;;;;;32.50;16.70;;;-4.00;99.90;;;;;;6100083;23;20025;-82
2022/12/14 10:56:49;;;;;;;34.33;16.20;;;-3.80;99.90;;;;;;6137326;23;20018;-82
2022/12/14 10:59:24;;;;;;;37.70;18.20;;;-3.60;99.90;;;;;;6099941;23;20066;-82
2022/12/14 11:02:21;;;;;;;37.77;18.03;;;-2.60;99.90;;;;;;6099853;23;20026;-83
2022/12/14 11:05:33;;;;;;;33.23;16.97;;;-3.20;99.90;;;;;;6126252;23;20097;-83
2022/12/14 11:07:59;;;;;;;32.40;16.17;;;-3.10;99.90;;;;;;6100248;23;20018;-83
2022/12/14 11:10:29;;;;;;;31.40;15.47;;;-3.10;99.90;;;;;;6126337;23;20368;-83
2022/12/14 11:13:22;;;;;;;30.87;15.33;;;-3.00;99.90;;;;;;6099701;23;20435;-83
2022/12/14 11:15:50;;;;;;;30.33;14.63;;;-2.70;99.90;;;;;;6126414;23;20102;-83
2022/12/14 11:18:15;;;;;;;28.47;14.67;;;-2.80;99.90;;;;;;6100410;23;20074;-83
2022/12/14 11:21:04;;;;;;;32.60;16.40;;;-2.60;99.90;;;;;;6099751;23;20017;-83
2022/12/14 11:23:45;;;;;;;31.03;15.70;;;-2.10;99.90;;;;;;6103409;23;20463;-84
2022/12/14 11:26:19;;;;;;;30.70;16.50;;;-2.80;99.90;;;;;;6101660;23;20017;-83
2022/12/14 11:28:47;;;;;;;;;;;-2.50;99.90;;;;;;6101538;23;20018;-83
2022/12/14 11:31:34;;;;;;;28.57;14.27;;;-2.60;99.90;;;;;;6130711;23;19919;-83
2022/12/14 11:34:39;;;;;;;29.80;14.83;;;-2.20;99.90;;;;;;6076924;23;20025;-84
2022/12/14 11:37:42;;;;;;;28.73;14.50;;;-1.90;99.90;;;;;;6090142;23;20019;-84
2022/12/14 11:40:37;;;;;;;31.73;16.17;;;-2.00;99.90;;;;;;6071296;23;20022;-83
2022/12/14 11:43:03;;;;;;;30.52;15.20;;;-0.60;99.90;;;;;;6070609;23;20347;-84
2022/12/14 11:45:32;;;;;;;26.40;13.60;;;-1.90;99.90;;;;;;6096825;23;20018;-85
2022/12/14 11:48:21;;;;;;;29.83;15.03;;;-1.70;99.90;;;;;;6093466;23;20025;-84
2022/12/14 11:51:10;;;;;;;27.80;14.57;;;-1.00;99.90;;;;;;6071091;23;20023;-83
2022/12/14 11:53:36;;;;;;;27.43;13.80;;;-1.70;99.90;;;;;;6070775;23;20029;-83
2022/12/14 11:56:20;;;;;;;27.93;14.23;;;-2.10;99.90;;;;;;6070426;23;20014;-84
2022/12/14 11:58:52;;;;;;;28.33;15.10;;;-2.40;99.90;;;;;;6071192;23;20395;-84
2022/12/14 12:01:33;;;;;;;31.93;14.83;;;-0.60;99.90;;;;;;6095324;23;20462;-83
2022/12/14 12:04:02;;;;;;;26.73;14.47;;;-0.90;99.90;;;;;;6071301;23;20511;-83
2022/12/14 12:06:39;;;;;;;27.23;13.83;;;-2.10;99.90;;;;;;6098350;23;20014;-84
2022/12/14 12:09:29;;;;;;;27.17;13.87;;;-2.20;99.90;;;;;;6070613;23;20019;-83
2022/12/14 12:12:02;;;;;;;27.27;13.93;;;-2.10;99.90;;;;;;6096810;23;20050;-84
2022/12/14 12:14:37;;;;;;;29.83;14.10;;;-2.70;99.90;;;;;;6070867;23;20033;-84
2022/12/14 12:17:39;;;;;;;28.13;13.87;;;-1.70;99.90;;;;;;6070514;23;20010;-84
2022/12/14 12:20:26;;;;;;;27.17;13.20;;;-1.30;99.90;;;;;;6096972;23;20081;-84
2022/12/14 12:23:25;;;;;;;30.17;13.93;;;-2.80;99.90;;;;;;6070535;23;20451;-84
2022/12/14 12:26:03;;;;;;;26.80;13.53;;;-2.50;99.90;;;;;;6102893;23;20103;-84
2022/12/14 12:28:34;;;;;;;27.53;14.17;;;-2.30;99.90;;;;;;6071795;23;20026;-83
2022/12/14 12:31:55;;;;;;;28.20;14.57;;;-2.20;99.90;;;;;;6070902;23;20097;-84
2022/12/14 12:34:46;;;;;;;27.43;14.30;;;-1.50;99.90;;;;;;6011386;23;20377;-84
2022/12/14 12:37:58;;;;;;;26.47;14.13;;;-1.80;99.90;;;;;;6006665;23;20120;-84
2022/12/14 12:41:19;;;;;;;26.77;13.60;;;-1.70;99.90;;;;;;5994455;23;20027;-83
2022/12/14 12:44:33;;;;;;;25.30;14.00;;;-0.20;99.90;;;;;;5984750;23;20020;-84
2022/12/14 12:47:47;;;;;;;27.97;13.60;;;-1.30;99.90;;;;;;6008124;23;20030;-84
2022/12/14 12:50:32;;;;;;;26.10;13.87;;;-1.00;99.90;;;;;;6024905;23;20011;-85
2022/12/14 12:53:24;;;;;;;28.07;14.50;;;-1.00;99.90;;;;;;6058687;23;20063;-82
2022/12/14 12:56:39;;;;;;;26.43;13.07;;;-0.50;99.90;;;;;;6042443;23;20066;-82
2022/12/14 12:59:05;;;;;;;28.38;13.95;;;-0.60;99.90;;;;;;6065500;23;20026;-84
2022/12/14 13:01:58;;;;;;;25.47;14.00;;;0.30;99.90;;;;;;6063594;23;20021;-84
2022/12/14 13:04:46;;;;;;;29.10;15.13;;;0.10;99.90;;;;;;6066700;23;20018;-84
2022/12/14 13:07:29;;;;;;;29.63;15.40;;;-0.50;99.90;;;;;;6066598;23;20022;-84
2022/12/14 13:10:38;;;;;;;29.67;15.17;;;-0.20;99.90;;;;;;6017635;23;20027;-84
2022/12/14 13:13:25;;;;;;;28.10;14.60;;;0.00;99.90;;;;;;6068168;23;20029;-85
2022/12/14 13:16:09;;;;;;;26.47;14.10;;;1.30;99.90;;;;;;6055020;23;20011;-84
2022/12/14 13:18:47;;;;;;;27.60;13.70;;;0.80;99.90;;;;;;6069530;23;20678;-85
2022/12/14 13:21:34;;;;;;;26.67;14.30;;;0.50;99.90;;;;;;6068732;23;20010;-85
2022/12/14 13:24:19;;;;;;;25.83;13.67;;;0.00;99.90;;;;;;6044060;23;20325;-85
2022/12/14 13:26:54;;;;;;;27.40;14.17;;;-0.30;99.90;;;;;;6043109;23;20023;-85
2022/12/14 13:29:47;;;;;;;26.23;14.40;;;-0.10;99.90;;;;;;6043347;23;20026;-85
2022/12/14 13:32:34;;;;;;;26.33;14.20;;;0.70;99.90;;;;;;6043153;23;20478;-85
2022/12/14 13:35:42;;;;;;;27.13;14.17;;;-0.20;99.90;;;;;;6069836;23;20025;-85
2022/12/14 13:38:33;;;;;;;28.03;14.23;;;-0.10;99.90;;;;;;6069144;23;20503;-85
2022/12/14 13:41:17;;;;;;;26.97;14.60;;;0.20;99.90;;;;;;6042738;23;20023;-85
2022/12/14 13:44:35;;;;;;;28.52;14.70;;;1.50;99.90;;;;;;6043322;23;20011;-84
2022/12/14 13:47:50;;;;;;;25.40;14.57;;;-0.20;99.90;;;;;;6042885;23;20014;-84
2022/12/14 13:57:22;;;;;;;28.37;14.40;;;0.40;99.90;;;;;;6041952;23;20483;-85
2022/12/14 14:00:29;;;;;;;27.53;14.50;;;-1.10;99.90;;;;;;6043620;23;20023;-85
2022/12/14 14:03:38;;;;;;;28.20;14.83;;;-0.60;99.90;;;;;;6046112;23;20023;-83
2022/12/14 14:06:39;;;;;;;29.50;14.77;;;-0.80;99.90;;;;;;6071937;23;20054;-85
2022/12/14 14:09:55;;;;;;;27.70;14.73;;;-0.60;99.90;;;;;;6068299;23;20535;-85
2022/12/14 14:12:36;;;;;;;28.60;13.87;;;-0.80;99.90;;;;;;5960675;24;20024;-83
2022/12/14 14:15:48;;;;;;;27.83;14.87;;;-1.50;99.90;;;;;;5982625;24;20024;-86
2022/12/14 14:18:21;;;;;;;28.13;14.70;;;-1.50;99.90;;;;;;5956789;24;20088;-86
2022/12/14 14:21:46;;;;;;;28.50;14.65;;;-0.40;99.90;;;;;;5981398;24;20569;-84
2022/12/14 14:24:20;;;;;;;30.30;14.57;;;-1.70;99.90;;;;;;5932912;24;20072;-84
2022/12/14 14:26:59;;;;;;;;;;;-1.80;99.90;;;;;;5988223;24;20016;-84
2022/12/14 14:29:25;;;;;;;27.23;14.50;;;-1.90;99.90;;;;;;6021054;23;20007;-84
2022/12/14 14:32:31;;;;;;;28.23;14.63;;;-2.10;99.90;;;;;;6040287;23;20027;-83
2022/12/14 14:35:43;;;;;;;30.60;14.97;;;-2.30;99.90;;;;;;6068806;23;20019;-87